MSC Marianna — H0AE — position and weather

sailwx.info

Track history (hours):
 
Tides and Currents Weather Stations Pressure Air Temp Water Temp Dewpoint Dewpoint Depression Visibility Wind Speed Wind Dir Waves Ship Positions

MSC Marianna

Last reported at 2018-Apr-23 06:17 UTC. Time now 2018-Apr-27 03:05 UTC.
Position N 32°00' W 080°13'.

Length 303 m; draft 11.3 m.

Type: Ship. MMSI: 352335000.

Date/timePositionNaut miles runAvg speedWind from/ knotsBaromVisibWave heightAir tempDewpointWater temp
2018-Apr-23 06:17N 32°00' W 080°13'414.6
2018-Apr-23 05:59N 31°59' W 080°18'610.8
2018-Apr-23 05:25N 31°58' W 080°25'4 9.1
2018-Apr-23 05:00N 31°58' W 080°29'4 8.9
2018-Apr-23 04:30N 31°57' W 080°34'4 9.0
2018-Apr-23 04:00N 31°57' W 080°40'4 8.7
2018-Apr-23 03:30N 31°59' W 080°45'713.7
2018-Apr-23 03:00N 32°02' W 080°52'510.0
2018-Apr-23 02:30N 32°04' W 080°57'4 8.4
2018-Apr-23 02:00N 32°05' W 081°02'4 7.0
2018-Apr-23 01:30N 32°05' W 081°06'2 4.9
2018-Apr-23 01:00N 32°07' W 081°08'0 0.9
2018-Apr-23 00:28N 32°07' W 081°08'0 0.0
2018-Apr-22 23:52N 32°07' W 081°08'0 0.0
2018-Apr-22 23:22N 32°07' W 081°08'0 0.0
2018-Apr-22 22:58N 32°07' W 081°08'0 0.0
2018-Apr-22 22:28N 32°07' W 081°08'0 0.0
2018-Apr-22 21:58N 32°07' W 081°08'0 0.0
2018-Apr-22 21:22N 32°07' W 081°08'0 0.0
2018-Apr-22 20:52N 32°07' W 081°08'0 0.0
2018-Apr-22 20:28N 32°08' W 081°08'0 0.0
2018-Apr-22 19:58N 32°07' W 081°08'0 0.0
2018-Apr-22 19:16N 32°07' W 081°08'0 0.0
2018-Apr-22 18:58N 32°07' W 081°08'0 0.0
2018-Apr-22 18:28N 32°07' W 081°08'0 0.0
2018-Apr-22 17:58N 32°07' W 081°08'0 0.0
2018-Apr-22 17:10N 32°07' W 081°08'0 0.0
2018-Apr-22 16:46N 32°07' W 081°08'0 0.0
2018-Apr-22 16:28N 32°07' W 081°08'0 0.0
2018-Apr-22 15:58N 32°07' W 081°08'0 0.0
2018-Apr-22 15:28N 32°07' W 081°08'0 0.0
2018-Apr-22 14:58N 32°07' W 081°08'0 0.0
2018-Apr-22 14:28N 32°07' W 081°08'0 0.0
2018-Apr-22 13:58N 32°07' W 081°08'0 0.0
2018-Apr-22 13:28N 32°07' W 081°08'0 0.0
2018-Apr-22 12:58N 32°07' W 081°08'0 0.0
2018-Apr-22 12:28N 32°08' W 081°08'0 0.0
2018-Apr-22 11:58N 32°07' W 081°08'0 0.0
2018-Apr-22 11:28N 32°07' W 081°08'0 0.0
2018-Apr-22 10:58N 32°07' W 081°08'0 0.0
2018-Apr-22 10:28N 32°07' W 081°08'0 0.0
2018-Apr-22 09:58N 32°07' W 081°08'0 0.0
2018-Apr-22 09:28N 32°07' W 081°08'0 0.0
2018-Apr-22 08:58N 32°07' W 081°08'0 0.0
2018-Apr-22 08:28N 32°07' W 081°08'0 0.0
2018-Apr-22 07:58N 32°07' W 081°08'0 0.0
2018-Apr-22 07:28N 32°07' W 081°08'0 0.0
2018-Apr-22 06:58N 32°07' W 081°08'0 0.0
2018-Apr-22 06:28N 32°07' W 081°08'0 0.0
2018-Apr-22 05:58N 32°07' W 081°08'0 0.0
2018-Apr-22 05:28N 32°07' W 081°08'0 0.0
2018-Apr-22 04:59N 32°07' W 081°08'0 0.7
2018-Apr-22 04:30N 32°08' W 081°08'1 2.2
2018-Apr-22 04:00N 32°07' W 081°08'3 6.1
2018-Apr-22 03:30N 32°05' W 081°05'4 8.0
2018-Apr-22 03:00N 32°06' W 081°00'612.2
2018-Apr-22 02:30N 32°02' W 080°55'713.8
2018-Apr-22 02:00N 31°60' W 080°47'612.5
2018-Apr-22 01:30N 31°57' W 080°40'2 3.7
2018-Apr-22 01:00N 31°57' W 080°38'4 7.4
2018-Apr-22 00:30N 31°58' W 080°34'3 5.7
2018-Apr-22 00:00N 31°59' W 080°31'3 4.9
2018-Apr-21 23:28N 31°59' W 080°27'4 8.3
2018-Apr-21 22:56N 31°59' W 080°22'4 8.2
2018-Apr-21 22:30N 31°60' W 080°18'36611.8
2018-Apr-20 15:38N 36°49' W 075°48'2 9.1
2018-Apr-20 15:27N 36°50' W 075°49'4 9.1
2018-Apr-20 14:58N 36°53' W 075°54'4 9.2
2018-Apr-20 14:30N 36°56' W 075°58'510.7
2018-Apr-20 14:00N 36°58' W 076°04'917.9
2018-Apr-20 13:30N 37°00' W 076°14'612.3
2018-Apr-20 13:00N 36°56' W 076°20'4 8.5
2018-Apr-20 12:30N 36°52' W 076°20'1 1.3
2018-Apr-20 11:59N 36°51' W 076°19'0 0.0
2018-Apr-20 11:29N 36°51' W 076°19'0 0.0
2018-Apr-20 10:59N 36°51' W 076°19'0 0.0
2018-Apr-20 10:29N 36°51' W 076°19'0 0.0
2018-Apr-20 09:59N 36°51' W 076°19'0 0.0
2018-Apr-20 09:29N 36°51' W 076°19'0 0.0
2018-Apr-20 08:59N 36°51' W 076°19'0 0.0
2018-Apr-20 08:29N 36°51' W 076°19'0 0.0
2018-Apr-20 07:59N 36°51' W 076°19'0 0.0
2018-Apr-20 07:29N 36°51' W 076°19'0 0.0
2018-Apr-20 06:59N 36°51' W 076°19'0 0.0
2018-Apr-20 06:29N 36°51' W 076°19'0 0.0
2018-Apr-20 05:59N 36°51' W 076°19'0 0.0
2018-Apr-20 05:29N 36°51' W 076°19'0 0.0
2018-Apr-20 04:59N 36°51' W 076°19'0 0.0
2018-Apr-20 04:29N 36°51' W 076°19'0 0.0
2018-Apr-20 03:59N 36°51' W 076°19'0 0.0
2018-Apr-20 03:29N 36°51' W 076°19'0 0.0
2018-Apr-20 02:59N 36°51' W 076°19'0 0.0
2018-Apr-20 02:29N 36°51' W 076°19'0 0.0
2018-Apr-20 01:59N 36°51' W 076°19'0 0.0
2018-Apr-20 01:29N 36°51' W 076°19'0 0.0
2018-Apr-20 00:59N 36°51' W 076°19'0 0.0
2018-Apr-20 00:29N 36°51' W 076°19'0 0.0
2018-Apr-19 23:59N 36°51' W 076°19'0 0.0
2018-Apr-19 23:29N 36°51' W 076°19'0 0.0
2018-Apr-19 22:59N 36°51' W 076°19'0 0.0
2018-Apr-19 22:29N 36°51' W 076°19'0 0.0
2018-Apr-19 21:59N 36°51' W 076°19'0 0.0
2018-Apr-19 21:29N 36°51' W 076°19'0 0.0
2018-Apr-19 20:59N 36°51' W 076°19'0 0.0
2018-Apr-19 20:29N 36°51' W 076°19'0 0.0
2018-Apr-19 19:59N 36°51' W 076°19'0 0.0
2018-Apr-19 19:29N 36°51' W 076°19'0 0.0
2018-Apr-19 18:59N 36°51' W 076°19'0 0.0
2018-Apr-19 18:29N 36°51' W 076°19'0 0.0
2018-Apr-19 17:59N 36°51' W 076°19'0 0.0
2018-Apr-19 17:29N 36°51' W 076°19'0 0.0
2018-Apr-19 16:59N 36°51' W 076°19'0 0.0
2018-Apr-19 16:29N 36°51' W 076°19'0 0.0
2018-Apr-19 15:59N 36°51' W 076°19'0 0.0
2018-Apr-19 15:29N 36°51' W 076°19'0 0.0
2018-Apr-19 14:59N 36°51' W 076°19'0 0.0
2018-Apr-19 14:29N 36°51' W 076°19'0 0.0
2018-Apr-19 13:59N 36°51' W 076°19'0 0.0
2018-Apr-19 13:29N 36°51' W 076°19'1 1.6
2018-Apr-19 13:00N 36°52' W 076°20'4 7.4
2018-Apr-19 12:30N 36°56' W 076°20'610.8
2018-Apr-19 12:00N 37°00' W 076°16'816.6
2018-Apr-19 11:31N 36°58' W 076°07'611.5
2018-Apr-19 11:00N 36°57' W 075°59'918.9
2018-Apr-19 10:30N 37°05' W 076°06'8417.7
2018-Apr-19 05:45N 38°28' W 076°23'520.1
2018-Apr-19 05:30N 38°33' W 076°26'919.3
2018-Apr-19 05:01N 38°42' W 076°26'1020.2
2018-Apr-19 04:30N 38°52' W 076°24'918.2
2018-Apr-19 04:00N 39°01' W 076°23'713.5
2018-Apr-19 03:31N 39°08' W 076°24'611.5
2018-Apr-19 03:00N 39°12' W 076°29'4 8.8
2018-Apr-19 02:30N 39°15' W 076°34'1 1.3
2018-Apr-19 01:58N 39°15' W 076°33'0 0.0
2018-Apr-19 01:28N 39°15' W 076°33'0 0.0
2018-Apr-19 00:58N 39°15' W 076°33'0 0.0
2018-Apr-19 00:28N 39°15' W 076°33'0 0.0
2018-Apr-18 23:55N 39°15' W 076°33'0 0.0
2018-Apr-18 23:28N 39°15' W 076°33'0 0.0
2018-Apr-18 22:58N 39°15' W 076°33'0 0.0
2018-Apr-18 22:28N 39°15' W 076°33'0 0.0
2018-Apr-18 21:58N 39°15' W 076°33'0 0.0
2018-Apr-18 21:28N 39°15' W 076°33'0 0.0
2018-Apr-18 20:58N 39°15' W 076°33'0 0.0
2018-Apr-18 20:28N 39°15' W 076°33'0 0.0
2018-Apr-18 19:56N 39°15' W 076°33'0 0.0
2018-Apr-18 19:28N 39°15' W 076°33'0 0.0
2018-Apr-18 18:58N 39°15' W 076°33'0 0.0
2018-Apr-18 18:28N 39°15' W 076°33'0 0.0
2018-Apr-18 17:58N 39°15' W 076°33'0 0.0
2018-Apr-18 17:28N 39°15' W 076°33'0 0.0
2018-Apr-18 16:58N 39°15' W 076°33'0 0.0
2018-Apr-18 16:28N 39°15' W 076°33'0 0.0
2018-Apr-18 15:58N 39°15' W 076°33'0 0.0
2018-Apr-18 15:28N 39°15' W 076°33'0 0.0
2018-Apr-18 14:58N 39°15' W 076°33'0 0.0
2018-Apr-18 14:28N 39°15' W 076°33'0 0.0
2018-Apr-18 13:58N 39°15' W 076°33'0 0.0
2018-Apr-18 13:28N 39°15' W 076°33'0 0.0
2018-Apr-18 12:58N 39°15' W 076°33'0 0.0
2018-Apr-18 12:28N 39°15' W 076°33'0 0.0
2018-Apr-18 11:58N 39°15' W 076°33'0 0.0
2018-Apr-18 11:28N 39°15' W 076°33'0 0.0
2018-Apr-18 10:58N 39°15' W 076°33'0 0.0
2018-Apr-18 10:28N 39°15' W 076°33'0 0.0
2018-Apr-18 09:58N 39°15' W 076°33'0 0.0
2018-Apr-18 09:28N 39°15' W 076°33'0 0.0
2018-Apr-18 08:58N 39°15' W 076°33'0 0.0
2018-Apr-18 08:28N 39°15' W 076°33'0 0.0
2018-Apr-18 07:58N 39°15' W 076°33'0 0.0
2018-Apr-18 07:28N 39°15' W 076°33'0 0.0
2018-Apr-18 06:56N 39°15' W 076°33'0 0.0
2018-Apr-18 06:28N 39°15' W 076°33'0 0.0
2018-Apr-18 05:56N 39°15' W 076°33'0 0.0
2018-Apr-18 05:28N 39°15' W 076°33'0 0.0
2018-Apr-18 04:58N 39°15' W 076°33'0 0.0
2018-Apr-18 04:28N 39°15' W 076°33'0 0.0
2018-Apr-18 03:58N 39°15' W 076°33'0 0.0
2018-Apr-18 03:28N 39°15' W 076°33'0 0.0
2018-Apr-18 02:58N 39°15' W 076°33'0 0.0
2018-Apr-18 02:28N 39°15' W 076°33'0 0.0
2018-Apr-18 01:58N 39°15' W 076°33'0 0.0
2018-Apr-18 01:28N 39°15' W 076°33'0 0.0
2018-Apr-18 00:58N 39°15' W 076°33'0 0.0
2018-Apr-18 00:28N 39°15' W 076°33'0 0.0
2018-Apr-17 23:58N 39°15' W 076°33'0 0.0
2018-Apr-17 23:28N 39°15' W 076°33'0 0.0
2018-Apr-17 22:58N 39°15' W 076°33'0 1.0
2018-Apr-17 22:30N 39°15' W 076°33'2 4.6
2018-Apr-17 22:00N 39°13' W 076°31'4 7.8
2018-Apr-17 21:30N 39°11' W 076°27'510.2
2018-Apr-17 21:00N 39°07' W 076°24'713.9
2018-Apr-17 20:30N 38°60' W 076°23'816.0
2018-Apr-17 20:01N 38°52' W 076°24'1 1.8
2018-Apr-17 19:28N 38°51' W 076°24'0 0.1
2018-Apr-17 18:58N 38°51' W 076°24'0 0.0
2018-Apr-17 18:28N 38°51' W 076°24'0 0.0
2018-Apr-17 17:58N 38°51' W 076°24'0 0.0
2018-Apr-17 17:28N 38°51' W 076°24'0 0.0
2018-Apr-17 16:58N 38°51' W 076°24'0 0.0
2018-Apr-17 16:28N 38°51' W 076°24'0 0.0
2018-Apr-17 15:55N 38°51' W 076°24'0 0.0
2018-Apr-17 15:28N 38°51' W 076°24'0 0.0
2018-Apr-17 14:58N 38°51' W 076°24'0 0.1
2018-Apr-17 14:28N 38°51' W 076°24'0 0.0
2018-Apr-17 13:58N 38°51' W 076°24'0 0.0
2018-Apr-17 13:26N 38°51' W 076°24'0 0.0
2018-Apr-17 12:58N 38°51' W 076°24'0 0.0
2018-Apr-17 12:28N 38°51' W 076°24'0 0.0
2018-Apr-17 11:59N 38°51' W 076°24'0 0.0
2018-Apr-17 11:25N 38°51' W 076°24'0 0.0
2018-Apr-17 10:58N 38°51' W 076°24'0 0.0
2018-Apr-17 10:28N 38°51' W 076°24'0 0.0
2018-Apr-17 09:58N 38°51' W 076°24'0 0.0
2018-Apr-17 09:28N 38°51' W 076°24'0 0.0
2018-Apr-17 08:58N 38°51' W 076°24'0 0.0
2018-Apr-17 08:28N 38°51' W 076°24'0 0.1
2018-Apr-17 07:58N 38°51' W 076°24'1 2.6
2018-Apr-17 07:30N 38°50' W 076°24'916.6
2018-Apr-17 06:59N 38°41' W 076°25'9417.6
2018-Apr-17 01:41N 37°08' W 076°09'418.6
2018-Apr-17 01:28N 37°05' W 076°06'816.9
2018-Apr-17 01:00N 36°59' W 076°00'5 9.2
2018-Apr-17 00:30N 36°56' W 075°56'4 8.0
2018-Apr-17 00:00N 36°53' W 075°52'4 8.1
2018-Apr-16 23:30N 36°51' W 075°48'4 8.9
2018-Apr-16 23:00N 36°49' W 075°43'14816.7
2018-Apr-16 14:08N 38°51' W 073°56'4818.3
2018-Apr-16 11:30N 39°39' W 073°51'1118.2
2018-Apr-16 10:55N 39°50' W 073°51'2714.3
2018-Apr-16 08:59N 40°17' W 073°49'6 9.5
2018-Apr-16 08:24N 40°23' W 073°49'4 9.4
2018-Apr-16 07:58N 40°27' W 073°47'4 8.8
2018-Apr-16 07:30N 40°28' W 073°53'5 9.7
2018-Apr-16 07:00N 40°30' W 073°58'713.1
2018-Apr-16 06:30N 40°36' W 074°02'4 8.2
2018-Apr-16 06:00N 40°39' W 074°06'2 3.8
2018-Apr-16 05:30N 40°40' W 074°09'0 0.5
2018-Apr-16 04:58N 40°40' W 074°09'0 0.0
2018-Apr-16 04:28N 40°40' W 074°09'0 0.0
2018-Apr-16 03:58N 40°40' W 074°09'0 0.0
2018-Apr-16 03:28N 40°40' W 074°09'0 0.0
2018-Apr-16 02:58N 40°40' W 074°09'0 0.0
2018-Apr-16 02:28N 40°40' W 074°09'0 0.0
2018-Apr-16 01:58N 40°40' W 074°09'0 0.0
2018-Apr-16 01:28N 40°40' W 074°09'0 0.0
2018-Apr-16 00:58N 40°40' W 074°09'0 0.0
2018-Apr-16 00:28N 40°40' W 074°09'0 0.0
2018-Apr-15 23:58N 40°40' W 074°09'0 0.0
2018-Apr-15 23:28N 40°40' W 074°09'0 0.0
2018-Apr-15 22:58N 40°40' W 074°09'0 0.0
2018-Apr-15 22:28N 40°40' W 074°09'0 0.0
2018-Apr-15 21:58N 40°40' W 074°09'0 0.0
2018-Apr-15 21:28N 40°40' W 074°09'0 0.0
2018-Apr-15 20:58N 40°40' W 074°09'0 0.0
2018-Apr-15 20:28N 40°40' W 074°09'0 0.0
2018-Apr-15 19:58N 40°40' W 074°09'0 0.0
2018-Apr-15 19:28N 40°40' W 074°09'0 0.0
2018-Apr-15 18:58N 40°40' W 074°09'0 0.0
2018-Apr-15 18:28N 40°40' W 074°09'0 0.0
2018-Apr-15 17:55N 40°40' W 074°09'0 0.0
2018-Apr-15 17:28N 40°40' W 074°09'0 0.0
2018-Apr-15 16:58N 40°40' W 074°09'0 0.0
2018-Apr-15 16:28N 40°40' W 074°09'0 0.0
2018-Apr-15 15:58N 40°40' W 074°09'0 0.0
2018-Apr-15 15:28N 40°40' W 074°09'0 0.0
2018-Apr-15 14:58N 40°40' W 074°09'0 0.0
2018-Apr-15 14:29N 40°40' W 074°09'0 0.0
2018-Apr-15 13:59N 40°40' W 074°09'0 0.0
2018-Apr-15 13:29N 40°40' W 074°09'0 0.0
2018-Apr-15 12:59N 40°40' W 074°09'0 0.0
2018-Apr-15 12:29N 40°40' W 074°09'0 0.0
2018-Apr-15 11:59N 40°40' W 074°09'0 0.0
2018-Apr-15 11:29N 40°40' W 074°09'0 0.0
2018-Apr-15 10:59N 40°40' W 074°09'0 0.0
2018-Apr-15 10:29N 40°40' W 074°09'0 0.0
2018-Apr-15 09:59N 40°40' W 074°09'0 0.0
2018-Apr-15 09:29N 40°40' W 074°09'0 0.0
2018-Apr-15 08:59N 40°40' W 074°09'0 0.0
2018-Apr-15 08:29N 40°40' W 074°09'0 0.0
2018-Apr-15 07:59N 40°40' W 074°09'0 0.0
2018-Apr-15 07:29N 40°40' W 074°09'0 0.0
2018-Apr-15 06:59N 40°40' W 074°09'0 0.0
2018-Apr-15 06:29N 40°40' W 074°09'0 0.0
2018-Apr-15 05:59N 40°40' W 074°09'0 0.0
2018-Apr-15 05:29N 40°40' W 074°09'0 0.0
2018-Apr-15 04:56N 40°40' W 074°09'0 0.0
2018-Apr-15 04:29N 40°40' W 074°09'0 0.0
2018-Apr-15 03:59N 40°40' W 074°09'0 0.0
2018-Apr-15 03:29N 40°40' W 074°09'0 0.0
2018-Apr-15 02:59N 40°40' W 074°09'0 0.0
2018-Apr-15 02:29N 40°40' W 074°09'0 0.0
2018-Apr-15 01:59N 40°40' W 074°09'0 0.0
2018-Apr-15 01:29N 40°40' W 074°09'0 0.0
2018-Apr-15 00:59N 40°40' W 074°09'0 0.0
2018-Apr-15 00:29N 40°40' W 074°09'0 0.0
2018-Apr-14 23:59N 40°40' W 074°09'0 0.0
2018-Apr-14 23:29N 40°40' W 074°09'0 0.0
2018-Apr-14 22:59N 40°40' W 074°09'0 0.0
2018-Apr-14 22:29N 40°40' W 074°09'0 0.0
2018-Apr-14 21:59N 40°40' W 074°09'0 0.0
2018-Apr-14 21:29N 40°40' W 074°09'0 0.0
2018-Apr-14 20:59N 40°40' W 074°09'0 0.0
2018-Apr-14 20:30N 40°40' W 074°09'1 3.0
2018-Apr-14 20:00N 40°39' W 074°08'3 6.2
2018-Apr-14 19:30N 40°39' W 074°04'3 6.2
2018-Apr-14 19:00N 40°36' W 074°03'4 7.1
2018-Apr-14 18:30N 40°33' W 074°01'3 5.4
2018-Apr-14 18:00N 40°31' W 073°59'3 5.8
2018-Apr-14 17:30N 40°30' W 073°56'4 8.6
2018-Apr-14 17:00N 40°28' W 073°50'4 7.2
2018-Apr-14 16:30N 40°27' W 073°46'4 7.0
2018-Apr-14 16:00N 40°27' W 073°41'3 7.1
2018-Apr-14 15:31N 40°28' W 073°37'5 7.9
2018-Apr-14 14:55N 40°28' W 073°31'  
Track history (hours):
 
Tides and Currents Weather Stations Pressure Air Temp Water Temp Dewpoint Dewpoint Depression Visibility Wind Speed Wind Dir Waves Ship Positions

MSC Marianna

Last reported at 2018-Apr-23 06:17 UTC. Time now 2018-Apr-27 03:05 UTC.
Position N 32°00' W 080°13'.

Length 303 m; draft 11.3 m.

Type: Ship. MMSI: 352335000.

Date/timePositionNaut miles runAvg speedWind from/ knotsBaromVisibWave heightAir tempDewpointWater temp
2018-Apr-23 06:17N 32°00' W 080°13'414.6
2018-Apr-23 05:59N 31°59' W 080°18'610.8
2018-Apr-23 05:25N 31°58' W 080°25'4 9.1
2018-Apr-23 05:00N 31°58' W 080°29'4 8.9
2018-Apr-23 04:30N 31°57' W 080°34'4 9.0
2018-Apr-23 04:00N 31°57' W 080°40'4 8.7
2018-Apr-23 03:30N 31°59' W 080°45'713.7
2018-Apr-23 03:00N 32°02' W 080°52'510.0
2018-Apr-23 02:30N 32°04' W 080°57'4 8.4
2018-Apr-23 02:00N 32°05' W 081°02'4 7.0
2018-Apr-23 01:30N 32°05' W 081°06'2 4.9
2018-Apr-23 01:00N 32°07' W 081°08'0 0.9
2018-Apr-23 00:28N 32°07' W 081°08'0 0.0
2018-Apr-22 23:52N 32°07' W 081°08'0 0.0
2018-Apr-22 23:22N 32°07' W 081°08'0 0.0
2018-Apr-22 22:58N 32°07' W 081°08'0 0.0
2018-Apr-22 22:28N 32°07' W 081°08'0 0.0
2018-Apr-22 21:58N 32°07' W 081°08'0 0.0
2018-Apr-22 21:22N 32°07' W 081°08'0 0.0
2018-Apr-22 20:52N 32°07' W 081°08'0 0.0
2018-Apr-22 20:28N 32°08' W 081°08'0 0.0
2018-Apr-22 19:58N 32°07' W 081°08'0 0.0
2018-Apr-22 19:16N 32°07' W 081°08'0 0.0
2018-Apr-22 18:58N 32°07' W 081°08'0 0.0
2018-Apr-22 18:28N 32°07' W 081°08'0 0.0
2018-Apr-22 17:58N 32°07' W 081°08'0 0.0
2018-Apr-22 17:10N 32°07' W 081°08'0 0.0
2018-Apr-22 16:46N 32°07' W 081°08'0 0.0
2018-Apr-22 16:28N 32°07' W 081°08'0 0.0
2018-Apr-22 15:58N 32°07' W 081°08'0 0.0
2018-Apr-22 15:28N 32°07' W 081°08'0 0.0
2018-Apr-22 14:58N 32°07' W 081°08'0 0.0
2018-Apr-22 14:28N 32°07' W 081°08'0 0.0
2018-Apr-22 13:58N 32°07' W 081°08'0 0.0
2018-Apr-22 13:28N 32°07' W 081°08'0 0.0
2018-Apr-22 12:58N 32°07' W 081°08'0 0.0
2018-Apr-22 12:28N 32°08' W 081°08'0 0.0
2018-Apr-22 11:58N 32°07' W 081°08'0 0.0
2018-Apr-22 11:28N 32°07' W 081°08'0 0.0
2018-Apr-22 10:58N 32°07' W 081°08'0 0.0
2018-Apr-22 10:28N 32°07' W 081°08'0 0.0
2018-Apr-22 09:58N 32°07' W 081°08'0 0.0
2018-Apr-22 09:28N 32°07' W 081°08'0 0.0
2018-Apr-22 08:58N 32°07' W 081°08'0 0.0
2018-Apr-22 08:28N 32°07' W 081°08'0 0.0
2018-Apr-22 07:58N 32°07' W 081°08'0 0.0
2018-Apr-22 07:28N 32°07' W 081°08'0 0.0
2018-Apr-22 06:58N 32°07' W 081°08'0 0.0
2018-Apr-22 06:28N 32°07' W 081°08'0 0.0
2018-Apr-22 05:58N 32°07' W 081°08'0 0.0
2018-Apr-22 05:28N 32°07' W 081°08'0 0.0
2018-Apr-22 04:59N 32°07' W 081°08'0 0.7
2018-Apr-22 04:30N 32°08' W 081°08'1 2.2
2018-Apr-22 04:00N 32°07' W 081°08'3 6.1
2018-Apr-22 03:30N 32°05' W 081°05'4 8.0
2018-Apr-22 03:00N 32°06' W 081°00'612.2
2018-Apr-22 02:30N 32°02' W 080°55'713.8
2018-Apr-22 02:00N 31°60' W 080°47'612.5
2018-Apr-22 01:30N 31°57' W 080°40'2 3.7
2018-Apr-22 01:00N 31°57' W 080°38'4 7.4
2018-Apr-22 00:30N 31°58' W 080°34'3 5.7
2018-Apr-22 00:00N 31°59' W 080°31'3 4.9
2018-Apr-21 23:28N 31°59' W 080°27'4 8.3
2018-Apr-21 22:56N 31°59' W 080°22'4 8.2
2018-Apr-21 22:30N 31°60' W 080°18'36611.8
2018-Apr-20 15:38N 36°49' W 075°48'2 9.1
2018-Apr-20 15:27N 36°50' W 075°49'4 9.1
2018-Apr-20 14:58N 36°53' W 075°54'4 9.2
2018-Apr-20 14:30N 36°56' W 075°58'510.7
2018-Apr-20 14:00N 36°58' W 076°04'917.9
2018-Apr-20 13:30N 37°00' W 076°14'612.3
2018-Apr-20 13:00N 36°56' W 076°20'4 8.5
2018-Apr-20 12:30N 36°52' W 076°20'1 1.3
2018-Apr-20 11:59N 36°51' W 076°19'0 0.0
2018-Apr-20 11:29N 36°51' W 076°19'0 0.0
2018-Apr-20 10:59N 36°51' W 076°19'0 0.0
2018-Apr-20 10:29N 36°51' W 076°19'0 0.0
2018-Apr-20 09:59N 36°51' W 076°19'0 0.0
2018-Apr-20 09:29N 36°51' W 076°19'0 0.0
2018-Apr-20 08:59N 36°51' W 076°19'0 0.0
2018-Apr-20 08:29N 36°51' W 076°19'0 0.0
2018-Apr-20 07:59N 36°51' W 076°19'0 0.0
2018-Apr-20 07:29N 36°51' W 076°19'0 0.0
2018-Apr-20 06:59N 36°51' W 076°19'0 0.0
2018-Apr-20 06:29N 36°51' W 076°19'0 0.0
2018-Apr-20 05:59N 36°51' W 076°19'0 0.0
2018-Apr-20 05:29N 36°51' W 076°19'0 0.0
2018-Apr-20 04:59N 36°51' W 076°19'0 0.0
2018-Apr-20 04:29N 36°51' W 076°19'0 0.0
2018-Apr-20 03:59N 36°51' W 076°19'0 0.0
2018-Apr-20 03:29N 36°51' W 076°19'0 0.0
2018-Apr-20 02:59N 36°51' W 076°19'0 0.0
2018-Apr-20 02:29N 36°51' W 076°19'0 0.0
2018-Apr-20 01:59N 36°51' W 076°19'0 0.0
2018-Apr-20 01:29N 36°51' W 076°19'0 0.0
2018-Apr-20 00:59N 36°51' W 076°19'0 0.0
2018-Apr-20 00:29N 36°51' W 076°19'0 0.0
2018-Apr-19 23:59N 36°51' W 076°19'0 0.0
2018-Apr-19 23:29N 36°51' W 076°19'0 0.0
2018-Apr-19 22:59N 36°51' W 076°19'0 0.0
2018-Apr-19 22:29N 36°51' W 076°19'0 0.0
2018-Apr-19 21:59N 36°51' W 076°19'0 0.0
2018-Apr-19 21:29N 36°51' W 076°19'0 0.0
2018-Apr-19 20:59N 36°51' W 076°19'0 0.0
2018-Apr-19 20:29N 36°51' W 076°19'0 0.0
2018-Apr-19 19:59N 36°51' W 076°19'0 0.0
2018-Apr-19 19:29N 36°51' W 076°19'0 0.0
2018-Apr-19 18:59N 36°51' W 076°19'0 0.0
2018-Apr-19 18:29N 36°51' W 076°19'0 0.0
2018-Apr-19 17:59N 36°51' W 076°19'0 0.0
2018-Apr-19 17:29N 36°51' W 076°19'0 0.0
2018-Apr-19 16:59N 36°51' W 076°19'0 0.0
2018-Apr-19 16:29N 36°51' W 076°19'0 0.0
2018-Apr-19 15:59N 36°51' W 076°19'0 0.0
2018-Apr-19 15:29N 36°51' W 076°19'0 0.0
2018-Apr-19 14:59N 36°51' W 076°19'0 0.0
2018-Apr-19 14:29N 36°51' W 076°19'0 0.0
2018-Apr-19 13:59N 36°51' W 076°19'0 0.0
2018-Apr-19 13:29N 36°51' W 076°19'1 1.6
2018-Apr-19 13:00N 36°52' W 076°20'4 7.4
2018-Apr-19 12:30N 36°56' W 076°20'610.8
2018-Apr-19 12:00N 37°00' W 076°16'816.6
2018-Apr-19 11:31N 36°58' W 076°07'611.5
2018-Apr-19 11:00N 36°57' W 075°59'918.9
2018-Apr-19 10:30N 37°05' W 076°06'8417.7
2018-Apr-19 05:45N 38°28' W 076°23'520.1
2018-Apr-19 05:30N 38°33' W 076°26'919.3
2018-Apr-19 05:01N 38°42' W 076°26'1020.2
2018-Apr-19 04:30N 38°52' W 076°24'918.2
2018-Apr-19 04:00N 39°01' W 076°23'713.5
2018-Apr-19 03:31N 39°08' W 076°24'611.5
2018-Apr-19 03:00N 39°12' W 076°29'4 8.8
2018-Apr-19 02:30N 39°15' W 076°34'1 1.3
2018-Apr-19 01:58N 39°15' W 076°33'0 0.0
2018-Apr-19 01:28N 39°15' W 076°33'0 0.0
2018-Apr-19 00:58N 39°15' W 076°33'0 0.0
2018-Apr-19 00:28N 39°15' W 076°33'0 0.0
2018-Apr-18 23:55N 39°15' W 076°33'0 0.0
2018-Apr-18 23:28N 39°15' W 076°33'0 0.0
2018-Apr-18 22:58N 39°15' W 076°33'0 0.0
2018-Apr-18 22:28N 39°15' W 076°33'0 0.0
2018-Apr-18 21:58N 39°15' W 076°33'0 0.0
2018-Apr-18 21:28N 39°15' W 076°33'0 0.0
2018-Apr-18 20:58N 39°15' W 076°33'0 0.0
2018-Apr-18 20:28N 39°15' W 076°33'0 0.0
2018-Apr-18 19:56N 39°15' W 076°33'0 0.0
2018-Apr-18 19:28N 39°15' W 076°33'0 0.0
2018-Apr-18 18:58N 39°15' W 076°33'0 0.0
2018-Apr-18 18:28N 39°15' W 076°33'0 0.0
2018-Apr-18 17:58N 39°15' W 076°33'0 0.0
2018-Apr-18 17:28N 39°15' W 076°33'0 0.0
2018-Apr-18 16:58N 39°15' W 076°33'0 0.0
2018-Apr-18 16:28N 39°15' W 076°33'0 0.0
2018-Apr-18 15:58N 39°15' W 076°33'0 0.0
2018-Apr-18 15:28N 39°15' W 076°33'0 0.0
2018-Apr-18 14:58N 39°15' W 076°33'0 0.0
2018-Apr-18 14:28N 39°15' W 076°33'0 0.0
2018-Apr-18 13:58N 39°15' W 076°33'0 0.0
2018-Apr-18 13:28N 39°15' W 076°33'0 0.0
2018-Apr-18 12:58N 39°15' W 076°33'0 0.0
2018-Apr-18 12:28N 39°15' W 076°33'0 0.0
2018-Apr-18 11:58N 39°15' W 076°33'0 0.0
2018-Apr-18 11:28N 39°15' W 076°33'0 0.0
2018-Apr-18 10:58N 39°15' W 076°33'0 0.0
2018-Apr-18 10:28N 39°15' W 076°33'0 0.0
2018-Apr-18 09:58N 39°15' W 076°33'0 0.0
2018-Apr-18 09:28N 39°15' W 076°33'0 0.0
2018-Apr-18 08:58N 39°15' W 076°33'0 0.0
2018-Apr-18 08:28N 39°15' W 076°33'0 0.0
2018-Apr-18 07:58N 39°15' W 076°33'0 0.0
2018-Apr-18 07:28N 39°15' W 076°33'0 0.0
2018-Apr-18 06:56N 39°15' W 076°33'0 0.0
2018-Apr-18 06:28N 39°15' W 076°33'0 0.0
2018-Apr-18 05:56N 39°15' W 076°33'0 0.0
2018-Apr-18 05:28N 39°15' W 076°33'0 0.0
2018-Apr-18 04:58N 39°15' W 076°33'0 0.0
2018-Apr-18 04:28N 39°15' W 076°33'0 0.0
2018-Apr-18 03:58N 39°15' W 076°33'0 0.0
2018-Apr-18 03:28N 39°15' W 076°33'0 0.0
2018-Apr-18 02:58N 39°15' W 076°33'0 0.0
2018-Apr-18 02:28N 39°15' W 076°33'0 0.0
2018-Apr-18 01:58N 39°15' W 076°33'0 0.0
2018-Apr-18 01:28N 39°15' W 076°33'0 0.0
2018-Apr-18 00:58N 39°15' W 076°33'0 0.0
2018-Apr-18 00:28N 39°15' W 076°33'0 0.0
2018-Apr-17 23:58N 39°15' W 076°33'0 0.0
2018-Apr-17 23:28N 39°15' W 076°33'0 0.0
2018-Apr-17 22:58N 39°15' W 076°33'0 1.0
2018-Apr-17 22:30N 39°15' W 076°33'2 4.6
2018-Apr-17 22:00N 39°13' W 076°31'4 7.8
2018-Apr-17 21:30N 39°11' W 076°27'510.2
2018-Apr-17 21:00N 39°07' W 076°24'713.9
2018-Apr-17 20:30N 38°60' W 076°23'816.0
2018-Apr-17 20:01N 38°52' W 076°24'1 1.8
2018-Apr-17 19:28N 38°51' W 076°24'0 0.1
2018-Apr-17 18:58N 38°51' W 076°24'0 0.0
2018-Apr-17 18:28N 38°51' W 076°24'0 0.0
2018-Apr-17 17:58N 38°51' W 076°24'0 0.0
2018-Apr-17 17:28N 38°51' W 076°24'0 0.0
2018-Apr-17 16:58N 38°51' W 076°24'0 0.0
2018-Apr-17 16:28N 38°51' W 076°24'0 0.0
2018-Apr-17 15:55N 38°51' W 076°24'0 0.0
2018-Apr-17 15:28N 38°51' W 076°24'0 0.0
2018-Apr-17 14:58N 38°51' W 076°24'0 0.1
2018-Apr-17 14:28N 38°51' W 076°24'0 0.0
2018-Apr-17 13:58N 38°51' W 076°24'0 0.0
2018-Apr-17 13:26N 38°51' W 076°24'0 0.0
2018-Apr-17 12:58N 38°51' W 076°24'0 0.0
2018-Apr-17 12:28N 38°51' W 076°24'0 0.0
2018-Apr-17 11:59N 38°51' W 076°24'0 0.0
2018-Apr-17 11:25N 38°51' W 076°24'0 0.0
2018-Apr-17 10:58N 38°51' W 076°24'0 0.0
2018-Apr-17 10:28N 38°51' W 076°24'0 0.0
2018-Apr-17 09:58N 38°51' W 076°24'0 0.0
2018-Apr-17 09:28N 38°51' W 076°24'0 0.0
2018-Apr-17 08:58N 38°51' W 076°24'0 0.0
2018-Apr-17 08:28N 38°51' W 076°24'0 0.1
2018-Apr-17 07:58N 38°51' W 076°24'1 2.6
2018-Apr-17 07:30N 38°50' W 076°24'916.6
2018-Apr-17 06:59N 38°41' W 076°25'9417.6
2018-Apr-17 01:41N 37°08' W 076°09'418.6
2018-Apr-17 01:28N 37°05' W 076°06'816.9
2018-Apr-17 01:00N 36°59' W 076°00'5 9.2
2018-Apr-17 00:30N 36°56' W 075°56'4 8.0
2018-Apr-17 00:00N 36°53' W 075°52'4 8.1
2018-Apr-16 23:30N 36°51' W 075°48'4 8.9
2018-Apr-16 23:00N 36°49' W 075°43'14816.7
2018-Apr-16 14:08N 38°51' W 073°56'4818.3
2018-Apr-16 11:30N 39°39' W 073°51'1118.2
2018-Apr-16 10:55N 39°50' W 073°51'2714.3
2018-Apr-16 08:59N 40°17' W 073°49'6 9.5
2018-Apr-16 08:24N 40°23' W 073°49'4 9.4
2018-Apr-16 07:58N 40°27' W 073°47'4 8.8
2018-Apr-16 07:30N 40°28' W 073°53'5 9.7
2018-Apr-16 07:00N 40°30' W 073°58'713.1
2018-Apr-16 06:30N 40°36' W 074°02'4 8.2
2018-Apr-16 06:00N 40°39' W 074°06'2 3.8
2018-Apr-16 05:30N 40°40' W 074°09'0 0.5
2018-Apr-16 04:58N 40°40' W 074°09'0 0.0
2018-Apr-16 04:28N 40°40' W 074°09'0 0.0
2018-Apr-16 03:58N 40°40' W 074°09'0 0.0
2018-Apr-16 03:28N 40°40' W 074°09'0 0.0
2018-Apr-16 02:58N 40°40' W 074°09'0 0.0
2018-Apr-16 02:28N 40°40' W 074°09'0 0.0
2018-Apr-16 01:58N 40°40' W 074°09'0 0.0
2018-Apr-16 01:28N 40°40' W 074°09'0 0.0
2018-Apr-16 00:58N 40°40' W 074°09'0 0.0
2018-Apr-16 00:28N 40°40' W 074°09'0 0.0
2018-Apr-15 23:58N 40°40' W 074°09'0 0.0
2018-Apr-15 23:28N 40°40' W 074°09'0 0.0
2018-Apr-15 22:58N 40°40' W 074°09'0 0.0
2018-Apr-15 22:28N 40°40' W 074°09'0 0.0
2018-Apr-15 21:58N 40°40' W 074°09'0 0.0
2018-Apr-15 21:28N 40°40' W 074°09'0 0.0
2018-Apr-15 20:58N 40°40' W 074°09'0 0.0
2018-Apr-15 20:28N 40°40' W 074°09'0 0.0
2018-Apr-15 19:58N 40°40' W 074°09'0 0.0
2018-Apr-15 19:28N 40°40' W 074°09'0 0.0
2018-Apr-15 18:58N 40°40' W 074°09'0 0.0
2018-Apr-15 18:28N 40°40' W 074°09'0 0.0
2018-Apr-15 17:55N 40°40' W 074°09'0 0.0
2018-Apr-15 17:28N 40°40' W 074°09'0 0.0
2018-Apr-15 16:58N 40°40' W 074°09'0 0.0
2018-Apr-15 16:28N 40°40' W 074°09'0 0.0
2018-Apr-15 15:58N 40°40' W 074°09'0 0.0
2018-Apr-15 15:28N 40°40' W 074°09'0 0.0
2018-Apr-15 14:58N 40°40' W 074°09'0 0.0
2018-Apr-15 14:29N 40°40' W 074°09'0 0.0
2018-Apr-15 13:59N 40°40' W 074°09'0 0.0
2018-Apr-15 13:29N 40°40' W 074°09'0 0.0
2018-Apr-15 12:59N 40°40' W 074°09'0 0.0
2018-Apr-15 12:29N 40°40' W 074°09'0 0.0
2018-Apr-15 11:59N 40°40' W 074°09'0 0.0
2018-Apr-15 11:29N 40°40' W 074°09'0 0.0
2018-Apr-15 10:59N 40°40' W 074°09'0 0.0
2018-Apr-15 10:29N 40°40' W 074°09'0 0.0
2018-Apr-15 09:59N 40°40' W 074°09'0 0.0
2018-Apr-15 09:29N 40°40' W 074°09'0 0.0
2018-Apr-15 08:59N 40°40' W 074°09'0 0.0
2018-Apr-15 08:29N 40°40' W 074°09'0 0.0
2018-Apr-15 07:59N 40°40' W 074°09'0 0.0
2018-Apr-15 07:29N 40°40' W 074°09'0 0.0
2018-Apr-15 06:59N 40°40' W 074°09'0 0.0
2018-Apr-15 06:29N 40°40' W 074°09'0 0.0
2018-Apr-15 05:59N 40°40' W 074°09'0 0.0
2018-Apr-15 05:29N 40°40' W 074°09'0 0.0
2018-Apr-15 04:56N 40°40' W 074°09'0 0.0
2018-Apr-15 04:29N 40°40' W 074°09'0 0.0
2018-Apr-15 03:59N 40°40' W 074°09'0 0.0
2018-Apr-15 03:29N 40°40' W 074°09'0 0.0
2018-Apr-15 02:59N 40°40' W 074°09'0 0.0
2018-Apr-15 02:29N 40°40' W 074°09'0 0.0
2018-Apr-15 01:59N 40°40' W 074°09'0 0.0
2018-Apr-15 01:29N 40°40' W 074°09'0 0.0
2018-Apr-15 00:59N 40°40' W 074°09'0 0.0
2018-Apr-15 00:29N 40°40' W 074°09'0 0.0
2018-Apr-14 23:59N 40°40' W 074°09'0 0.0
2018-Apr-14 23:29N 40°40' W 074°09'0 0.0
2018-Apr-14 22:59N 40°40' W 074°09'0 0.0
2018-Apr-14 22:29N 40°40' W 074°09'0 0.0
2018-Apr-14 21:59N 40°40' W 074°09'0 0.0
2018-Apr-14 21:29N 40°40' W 074°09'0 0.0
2018-Apr-14 20:59N 40°40' W 074°09'0 0.0
2018-Apr-14 20:30N 40°40' W 074°09'1 3.0
2018-Apr-14 20:00N 40°39' W 074°08'3 6.2
2018-Apr-14 19:30N 40°39' W 074°04'3 6.2
2018-Apr-14 19:00N 40°36' W 074°03'4 7.1
2018-Apr-14 18:30N 40°33' W 074°01'3 5.4
2018-Apr-14 18:00N 40°31' W 073°59'3 5.8
2018-Apr-14 17:30N 40°30' W 073°56'4 8.6
2018-Apr-14 17:00N 40°28' W 073°50'4 7.2
2018-Apr-14 16:30N 40°27' W 073°46'4 7.0
2018-Apr-14 16:00N 40°27' W 073°41'3 7.1
2018-Apr-14 15:31N 40°28' W 073°37'5 7.9
2018-Apr-14 14:55N 40°28' W 073°31'  

Dump ship's entire track history